createdAt,value
2022-10-21T00:00:24.822Z,15.35
2022-10-21T00:02:26.263Z,14.95
2022-10-21T00:04:27.721Z,14.63
2022-10-21T00:06:29.453Z,15.02
2022-10-21T00:08:30.995Z,13.73
2022-10-21T00:10:32.501Z,14.73
2022-10-21T00:12:34.501Z,13.98
2022-10-21T00:14:36.050Z,14.45
2022-10-21T00:16:37.508Z,13.95
2022-10-21T00:18:40.566Z,14.13
2022-10-21T00:20:42.125Z,14.00
2022-10-21T00:22:43.565Z,14.15
2022-10-21T00:24:45.051Z,14.77
2022-10-21T00:26:46.508Z,14.57
2022-10-21T00:28:48.031Z,14.52
2022-10-21T00:30:49.704Z,15.05
2022-10-21T00:32:51.123Z,14.13
2022-10-21T00:34:52.528Z,15.02
2022-10-21T00:36:54.063Z,14.40
2022-10-21T00:38:56.920Z,15.30
2022-10-21T00:40:59.243Z,14.48
2022-10-21T00:43:00.892Z,14.50
2022-10-21T00:45:05.363Z,14.40
2022-10-21T00:47:16.948Z,14.02
2022-10-21T00:49:28.874Z,14.32
2022-10-21T00:51:31.451Z,14.95
2022-10-21T00:53:35.295Z,14.75
2022-10-21T00:55:43.602Z,13.52
2022-10-21T00:57:45.152Z,14.98
2022-10-21T00:59:50.622Z,13.73
2022-10-21T01:01:52.600Z,14.38
2022-10-21T01:03:54.042Z,14.45
2022-10-21T01:05:58.732Z,14.82
2022-10-21T01:08:00.667Z,14.63
2022-10-21T01:10:02.200Z,14.75
2022-10-21T01:12:10.499Z,14.07
2022-10-21T01:14:30.580Z,14.88
2022-10-21T01:17:01.316Z,14.70
2022-10-21T01:19:42.654Z,13.77
2022-10-21T01:21:52.726Z,13.95
2022-10-21T01:24:09.058Z,14.18
2022-10-21T01:26:29.563Z,14.15
2022-10-21T01:28:39.996Z,14.13
2022-10-21T01:30:57.835Z,14.60
2022-10-21T01:35:24.409Z,14.45
2022-10-21T01:37:35.464Z,14.98
2022-10-21T01:40:03.070Z,14.68
2022-10-21T01:42:27.552Z,15.02
2022-10-21T01:44:28.924Z,14.48
2022-10-21T01:46:41.709Z,14.65
2022-10-21T01:48:48.680Z,13.52
2022-10-21T01:51:00.810Z,13.95
2022-10-21T01:53:06.853Z,14.38
2022-10-21T01:55:12.201Z,13.57
2022-10-21T01:57:16.787Z,13.43
2022-10-21T01:59:21.457Z,13.95
2022-10-21T02:01:24.282Z,14.85
2022-10-21T02:03:34.727Z,14.55
2022-10-21T02:05:36.722Z,14.00
2022-10-21T02:07:38.179Z,14.48
2022-10-21T02:09:39.614Z,14.63
2022-10-21T02:11:44.476Z,13.93
2022-10-21T02:13:57.526Z,13.45
2022-10-21T02:16:03.444Z,15.20
2022-10-21T02:18:09.818Z,15.27
2022-10-21T02:20:14.712Z,13.68
2022-10-21T02:22:21.514Z,15.05
2022-10-21T02:24:47.886Z,14.30
2022-10-21T02:26:49.520Z,14.68
2022-10-21T02:28:52.724Z,14.50
2022-10-21T02:31:20.092Z,14.40
2022-10-21T02:33:33.300Z,14.77
2022-10-21T02:35:55.371Z,14.35
2022-10-21T02:38:19.870Z,14.57
2022-10-21T02:40:31.937Z,14.45
2022-10-21T02:42:39.585Z,15.88
2022-10-21T02:44:41.195Z,14.18
2022-10-21T02:46:46.537Z,14.68
2022-10-21T02:48:48.804Z,14.63
2022-10-21T02:50:50.592Z,15.70
2022-10-21T02:52:52.211Z,15.48
2022-10-21T02:54:53.630Z,14.52
2022-10-21T02:56:55.081Z,14.77
2022-10-21T02:58:56.534Z,14.50
2022-10-21T03:00:58.511Z,15.02
2022-10-21T03:03:00.713Z,15.05
2022-10-21T03:05:02.247Z,15.43
2022-10-21T03:07:03.687Z,14.25
2022-10-21T03:09:05.404Z,14.55
2022-10-21T03:11:06.946Z,15.05
2022-10-21T03:13:08.395Z,15.05
2022-10-21T03:15:10.316Z,14.15
2022-10-21T03:17:11.804Z,14.38
2022-10-21T03:19:13.375Z,14.95
2022-10-21T03:21:14.831Z,16.65
2022-10-21T03:23:17.792Z,16.02
2022-10-21T03:25:19.267Z,16.00
2022-10-21T03:27:20.698Z,15.32
2022-10-21T03:29:22.280Z,15.52
2022-10-21T03:31:23.837Z,15.20
2022-10-21T03:33:25.288Z,16.33
2022-10-21T03:35:27.675Z,14.85
2022-10-21T03:37:29.087Z,14.25
2022-10-21T03:39:30.525Z,15.15
2022-10-21T03:41:31.988Z,15.27
2022-10-21T03:43:33.468Z,14.15
2022-10-21T03:45:34.983Z,14.73
2022-10-21T03:47:36.418Z,15.82
2022-10-21T03:49:37.846Z,15.30
2022-10-21T03:51:39.284Z,14.75
2022-10-21T03:53:44.044Z,14.48
2022-10-21T03:55:45.615Z,14.93
2022-10-21T03:57:47.836Z,15.38
2022-10-21T03:59:49.258Z,16.15
2022-10-21T04:01:50.770Z,14.68
2022-10-21T04:03:52.451Z,15.65
2022-10-21T04:05:54.032Z,16.42
2022-10-21T04:07:55.459Z,15.88
2022-10-21T04:09:56.896Z,16.30
2022-10-21T04:11:58.344Z,16.27
2022-10-21T04:13:59.786Z,16.17
2022-10-21T04:16:03.659Z,15.05
2022-10-21T04:18:05.949Z,16.77
2022-10-21T04:20:08.156Z,16.63
2022-10-21T04:22:09.821Z,15.15
2022-10-21T04:24:11.555Z,16.42
2022-10-21T04:26:13.051Z,17.45
2022-10-21T04:28:14.578Z,16.00
2022-10-21T04:30:16.174Z,16.40
2022-10-21T04:32:17.604Z,16.90
2022-10-21T04:34:19.026Z,16.27
2022-10-21T04:36:20.496Z,17.00
2022-10-21T04:38:23.111Z,16.85
2022-10-21T04:40:24.609Z,16.42
2022-10-21T04:42:26.042Z,15.95
2022-10-21T04:44:27.459Z,16.55
2022-10-21T04:46:28.904Z,17.60
2022-10-21T04:48:30.347Z,16.27
2022-10-21T04:50:32.576Z,17.13
2022-10-21T04:52:34.050Z,16.17
2022-10-21T04:54:35.460Z,15.27
2022-10-21T04:56:36.983Z,17.05
2022-10-21T04:58:38.439Z,17.20
2022-10-21T05:00:39.950Z,17.95
2022-10-21T05:02:41.771Z,18.52
2022-10-21T05:04:43.388Z,17.65
2022-10-21T05:06:44.834Z,17.90
2022-10-21T05:08:46.278Z,17.35
2022-10-21T05:10:48.387Z,17.60
2022-10-21T05:12:49.811Z,16.70
2022-10-21T05:14:51.300Z,17.20
2022-10-21T05:16:52.755Z,16.83
2022-10-21T05:18:54.202Z,16.80
2022-10-21T05:20:56.475Z,16.63
2022-10-21T05:22:57.893Z,17.58
2022-10-21T05:24:59.348Z,16.65
2022-10-21T05:27:00.783Z,17.02
2022-10-21T05:29:02.210Z,16.80
2022-10-21T05:31:03.720Z,15.93
2022-10-21T05:33:05.663Z,17.92
2022-10-21T05:35:07.964Z,17.02
2022-10-21T05:37:09.388Z,17.27
2022-10-21T05:39:11.591Z,16.88
2022-10-21T05:41:13.172Z,16.77
2022-10-21T05:43:14.609Z,16.42
2022-10-21T05:45:16.353Z,16.98
2022-10-21T05:47:17.782Z,17.58
2022-10-21T05:49:19.684Z,16.83
2022-10-21T05:51:26.318Z,15.15
2022-10-21T05:53:27.768Z,16.42
2022-10-21T05:55:29.220Z,16.70
2022-10-21T05:57:38.204Z,16.00
2022-10-21T05:59:39.709Z,16.15
2022-10-21T06:01:41.223Z,17.20
2022-10-21T06:03:42.675Z,15.75
2022-10-21T06:05:44.114Z,16.45
2022-10-21T06:07:45.551Z,15.50
2022-10-21T06:09:46.964Z,16.30
2022-10-21T06:11:48.387Z,15.52
2022-10-21T06:13:50.696Z,16.67
2022-10-21T06:15:52.136Z,16.67
2022-10-21T06:17:53.640Z,15.73
2022-10-21T06:19:55.121Z,17.38
2022-10-21T06:21:57.765Z,15.98
2022-10-21T06:23:59.214Z,15.82
2022-10-21T06:26:11.805Z,15.52
2022-10-21T06:28:13.212Z,14.50
2022-10-21T06:30:14.671Z,15.40
2022-10-21T06:32:16.108Z,16.85
2022-10-21T06:36:23.943Z,15.75
2022-10-21T06:38:28.516Z,15.65
2022-10-21T06:40:29.982Z,15.75
2022-10-21T06:42:31.503Z,16.00
2022-10-21T06:44:32.989Z,16.55
2022-10-21T06:46:34.433Z,16.30
2022-10-21T06:48:35.981Z,17.17
2022-10-21T06:50:38.089Z,14.80
2022-10-21T06:52:40.299Z,15.35
2022-10-21T06:54:41.814Z,15.65
2022-10-21T06:56:43.312Z,15.68
2022-10-21T06:58:49.331Z,16.10
2022-10-21T07:00:50.808Z,15.23
2022-10-21T07:02:52.248Z,15.13
2022-10-21T07:04:53.781Z,15.85
2022-10-21T07:06:55.388Z,15.95
2022-10-21T07:08:58.799Z,16.00
2022-10-21T07:11:01.061Z,15.25
2022-10-21T07:13:02.471Z,15.35
2022-10-21T07:15:04.348Z,15.88
2022-10-21T07:17:05.896Z,15.25
2022-10-21T07:19:08.625Z,16.23
2022-10-21T07:21:14.948Z,14.98
2022-10-21T07:23:16.366Z,15.55
2022-10-21T07:25:17.792Z,15.93
2022-10-21T07:27:19.249Z,16.15
2022-10-21T07:29:20.710Z,16.15
2022-10-21T07:31:22.406Z,15.95
2022-10-21T07:33:25.022Z,16.38
2022-10-21T07:35:26.483Z,14.82
2022-10-21T07:37:27.915Z,15.57
2022-10-21T07:39:29.407Z,14.48
2022-10-21T07:41:37.744Z,15.05
2022-10-21T07:43:39.285Z,14.88
2022-10-21T07:45:42.381Z,15.00
2022-10-21T07:47:43.875Z,15.50
2022-10-21T07:49:45.293Z,15.68
2022-10-21T07:51:47.285Z,15.68
2022-10-21T07:53:51.458Z,14.82
2022-10-21T07:56:01.968Z,15.07
2022-10-21T07:58:04.996Z,15.80
2022-10-21T08:00:09.126Z,16.75
2022-10-21T08:02:13.907Z,16.13
2022-10-21T08:04:18.587Z,16.65
2022-10-21T08:06:20.598Z,15.80
2022-10-21T08:08:22.651Z,16.25
2022-10-21T08:10:24.079Z,16.98
2022-10-21T08:12:25.795Z,17.63
2022-10-21T08:14:27.364Z,16.35
2022-10-21T08:16:28.870Z,17.67
2022-10-21T08:18:30.356Z,16.23
2022-10-21T08:20:32.442Z,16.58
2022-10-21T08:22:33.888Z,15.88
2022-10-21T08:24:39.905Z,15.70
2022-10-21T08:26:43.713Z,17.17
2022-10-21T08:28:45.292Z,29.10
2022-10-21T08:30:46.876Z,19.58
2022-10-21T08:32:48.337Z,16.05
2022-10-21T08:34:49.751Z,16.35
2022-10-21T08:36:51.183Z,16.17
2022-10-21T08:38:53.587Z,16.58
2022-10-21T08:40:55.854Z,17.00
2022-10-21T08:43:07.631Z,16.58
2022-10-21T08:45:28.183Z,16.58
2022-10-21T08:47:47.725Z,16.38
2022-10-21T08:50:16.479Z,15.60
2022-10-21T08:52:56.338Z,15.90
2022-10-21T08:55:01.380Z,15.77
2022-10-21T08:57:03.095Z,15.30
2022-10-21T08:59:15.837Z,15.55
2022-10-21T09:01:30.165Z,15.60
2022-10-21T09:03:46.881Z,15.52
2022-10-21T09:06:09.283Z,15.98
2022-10-21T09:08:18.390Z,16.00
2022-10-21T09:10:34.544Z,15.90
2022-10-21T09:12:53.619Z,15.50
2022-10-21T09:14:58.541Z,15.63
2022-10-21T09:17:08.956Z,14.77
2022-10-21T09:19:22.387Z,15.95
2022-10-21T09:21:42.613Z,16.05
2022-10-21T09:24:01.638Z,16.58
2022-10-21T09:26:18.649Z,15.73
2022-10-21T09:28:20.072Z,15.35
2022-10-21T09:30:22.941Z,15.32
2022-10-21T09:34:58.060Z,14.57
2022-10-21T09:37:01.115Z,13.85
2022-10-21T09:39:18.273Z,13.20
2022-10-21T09:41:23.920Z,12.80
2022-10-21T09:43:26.908Z,12.55
2022-10-21T09:45:36.844Z,12.73
2022-10-21T09:47:38.261Z,13.25
2022-10-21T09:50:06.006Z,13.70
2022-10-21T09:52:06.980Z,11.85
2022-10-21T09:54:19.689Z,11.60
2022-10-21T09:56:23.646Z,11.07
2022-10-21T09:58:48.382Z,10.75
2022-10-21T10:00:50.821Z,10.30
2022-10-21T10:02:52.284Z,9.90
2022-10-21T10:04:53.784Z,10.10
2022-10-21T10:06:55.267Z,10.20
2022-10-21T10:09:14.372Z,10.23
2022-10-21T10:11:20.354Z,10.00
2022-10-21T10:13:22.550Z,9.32
2022-10-21T10:15:36.491Z,9.18
2022-10-21T10:17:39.707Z,8.00
2022-10-21T10:19:41.147Z,7.43
2022-10-21T10:21:42.716Z,6.93
2022-10-21T10:23:45.455Z,6.57
2022-10-21T10:25:50.816Z,7.40
2022-10-21T10:27:53.803Z,6.32
2022-10-21T10:29:58.565Z,5.95
2022-10-21T10:32:01.665Z,5.55
2022-10-21T10:34:08.689Z,5.63
2022-10-21T10:36:26.612Z,5.70
2022-10-21T10:38:51.624Z,5.40
2022-10-21T10:40:56.329Z,5.13
2022-10-21T10:43:06.032Z,4.60
2022-10-21T10:45:19.585Z,5.18
2022-10-21T10:47:29.316Z,5.18
2022-10-21T10:49:42.250Z,4.63
2022-10-21T10:51:47.319Z,4.78
2022-10-21T10:54:00.885Z,4.20
2022-10-21T10:56:11.278Z,4.15
2022-10-21T10:58:15.437Z,4.18
2022-10-21T11:00:23.207Z,4.32
2022-10-21T11:02:35.307Z,4.10
2022-10-21T11:04:49.479Z,4.13
2022-10-21T11:06:58.719Z,3.55
2022-10-21T11:09:01.808Z,3.40
2022-10-21T11:11:07.453Z,3.40
2022-10-21T11:13:20.660Z,2.95
2022-10-21T11:15:46.993Z,3.13
2022-10-21T11:18:24.054Z,2.80
2022-10-21T11:20:40.497Z,2.70
2022-10-21T11:22:50.604Z,3.08
2022-10-21T11:25:14.241Z,2.80
2022-10-21T11:27:19.246Z,2.53
2022-10-21T11:29:29.578Z,2.80
2022-10-21T11:31:53.914Z,2.92
2022-10-21T11:34:59.323Z,2.65
2022-10-21T11:37:33.173Z,3.00
2022-10-21T11:39:42.576Z,2.88
2022-10-21T11:41:50.878Z,2.47
2022-10-21T11:44:42.545Z,3.08
2022-10-21T11:46:51.287Z,3.50
2022-10-21T11:49:16.808Z,3.10
2022-10-21T11:51:21.165Z,3.08
2022-10-21T11:53:38.215Z,3.40
2022-10-21T11:55:45.583Z,3.08
2022-10-21T11:57:58.353Z,3.30
2022-10-21T12:00:13.737Z,3.20
2022-10-21T12:02:21.664Z,3.20
2022-10-21T12:04:33.193Z,3.10
2022-10-21T12:06:52.298Z,3.50
2022-10-21T12:09:15.832Z,3.42
2022-10-21T12:11:23.856Z,3.00
2022-10-21T12:13:31.647Z,3.58
2022-10-21T12:15:41.333Z,3.50
2022-10-21T12:17:45.082Z,2.92
2022-10-21T12:19:59.605Z,2.90
2022-10-21T12:22:02.039Z,3.20
2022-10-21T12:24:25.926Z,3.47
2022-10-21T12:26:59.302Z,3.45
2022-10-21T12:29:19.631Z,3.55
2022-10-21T12:31:34.194Z,3.10
2022-10-21T12:33:42.322Z,2.67
2022-10-21T12:35:53.066Z,3.20
2022-10-21T12:37:54.437Z,3.67
2022-10-21T12:40:29.240Z,4.07
2022-10-21T12:42:30.724Z,3.97
2022-10-21T12:44:33.290Z,4.25
2022-10-21T12:46:49.748Z,3.50
2022-10-21T12:48:52.405Z,3.42
2022-10-21T12:51:07.164Z,3.65
2022-10-21T12:53:29.813Z,3.67
2022-10-21T12:55:39.573Z,4.22
2022-10-21T12:57:42.254Z,4.57
2022-10-21T12:59:44.088Z,3.92
2022-10-21T13:02:05.438Z,3.80
2022-10-21T13:04:31.663Z,4.03
2022-10-21T13:06:54.513Z,4.15
2022-10-21T13:08:56.484Z,4.28
2022-10-21T13:11:06.660Z,4.07
2022-10-21T13:13:28.681Z,3.75
2022-10-21T13:15:30.053Z,4.10
2022-10-21T13:17:52.017Z,4.15
2022-10-21T13:20:15.011Z,3.67
2022-10-21T13:22:38.081Z,3.92
2022-10-21T13:24:41.378Z,4.05
2022-10-21T13:26:57.089Z,4.05
2022-10-21T13:29:33.436Z,3.80
2022-10-21T13:31:34.997Z,4.30
2022-10-21T13:33:38.627Z,4.30
2022-10-21T13:35:54.786Z,4.13
2022-10-21T13:38:04.035Z,3.75
2022-10-21T13:40:16.464Z,5.15
2022-10-21T13:42:20.654Z,4.25
2022-10-21T13:44:30.082Z,4.65
2022-10-21T13:46:39.217Z,9.23
2022-10-21T13:48:46.264Z,12.32
2022-10-21T13:50:49.787Z,10.13
2022-10-21T13:52:53.801Z,4.70
2022-10-21T13:55:03.231Z,5.10
2022-10-21T13:57:08.707Z,14.93
2022-10-21T13:59:26.615Z,14.32
2022-10-21T14:01:51.022Z,5.13
2022-10-21T14:03:55.161Z,4.90
2022-10-21T14:06:01.298Z,4.53
2022-10-21T14:08:05.113Z,4.53
2022-10-21T14:10:08.081Z,4.60
2022-10-21T14:12:21.887Z,5.30
2022-10-21T14:14:26.274Z,5.75
2022-10-21T14:16:34.858Z,4.90
2022-10-21T14:20:40.902Z,4.43
2022-10-21T14:22:48.325Z,4.25
2022-10-21T14:24:56.572Z,9.88
2022-10-21T14:26:58.319Z,3.97
2022-10-21T14:29:01.640Z,5.28
2022-10-21T14:33:15.253Z,3.95
2022-10-21T14:35:16.639Z,13.50
2022-10-21T14:37:20.785Z,6.60
2022-10-21T14:39:22.740Z,3.90
2022-10-21T14:41:37.475Z,5.13
2022-10-21T14:43:41.069Z,5.35
2022-10-21T14:45:51.975Z,4.80
2022-10-21T14:48:01.979Z,4.88
2022-10-21T14:50:04.099Z,4.28
2022-10-21T14:52:08.032Z,4.53
2022-10-21T14:54:26.184Z,5.22
2022-10-21T14:56:40.095Z,5.05
2022-10-21T14:58:42.492Z,4.82
2022-10-21T15:00:44.048Z,7.75
2022-10-21T15:02:46.086Z,14.73
2022-10-21T15:04:57.243Z,20.48
2022-10-21T15:07:01.432Z,20.98
2022-10-21T15:09:12.227Z,13.38
2022-10-21T15:11:18.687Z,7.68
2022-10-21T15:13:20.665Z,6.47
2022-10-21T15:15:40.340Z,8.82
2022-10-21T15:17:42.154Z,29.73
2022-10-21T15:19:50.452Z,43.03
2022-10-21T15:21:53.832Z,23.65
2022-10-21T15:23:59.104Z,16.05
2022-10-21T15:26:05.781Z,17.85
2022-10-21T15:28:12.861Z,10.88
2022-10-21T15:30:20.498Z,6.35
2022-10-21T15:32:25.589Z,21.67
2022-10-21T15:34:31.582Z,33.63
2022-10-21T15:36:32.980Z,10.70
2022-10-21T15:38:39.714Z,5.95
2022-10-21T15:40:41.174Z,11.07
2022-10-21T15:42:43.945Z,24.50
2022-10-21T15:44:51.468Z,18.00
2022-10-21T15:46:58.270Z,35.03
2022-10-21T15:49:08.560Z,31.95
2022-10-21T15:51:10.110Z,14.27
2022-10-21T15:53:11.724Z,18.58
2022-10-21T15:55:13.162Z,14.88
2022-10-21T15:57:21.009Z,8.98
2022-10-21T15:59:26.247Z,27.13
2022-10-21T16:01:27.745Z,31.20
2022-10-21T16:03:30.456Z,22.88
2022-10-21T16:05:32.117Z,10.38
2022-10-21T16:07:34.207Z,10.73
2022-10-21T16:09:35.647Z,5.70
2022-10-21T16:11:40.962Z,5.60
2022-10-21T16:13:43.174Z,6.32
2022-10-21T16:15:44.651Z,5.15
2022-10-21T16:17:49.624Z,5.25
2022-10-21T16:19:51.062Z,6.35
2022-10-21T16:21:52.487Z,5.88
2022-10-21T16:23:55.750Z,5.88
2022-10-21T16:25:57.155Z,5.47
2022-10-21T16:27:58.733Z,5.78
2022-10-21T16:30:00.226Z,6.00
2022-10-21T16:32:01.661Z,5.85
2022-10-21T16:34:03.131Z,5.30
2022-10-21T16:36:26.493Z,6.40
2022-10-21T16:38:27.926Z,6.00
2022-10-21T16:40:34.791Z,5.70
2022-10-21T16:42:36.269Z,5.70
2022-10-21T16:44:37.745Z,6.05
2022-10-21T16:46:41.800Z,7.57
2022-10-21T16:48:43.847Z,6.10
2022-10-21T16:50:46.380Z,7.55
2022-10-21T16:52:48.294Z,7.40
2022-10-21T16:54:50.314Z,8.02
2022-10-21T16:56:54.825Z,7.03
2022-10-21T16:58:57.086Z,7.30
2022-10-21T17:00:58.839Z,6.47
2022-10-21T17:03:00.435Z,6.53
2022-10-21T17:05:01.984Z,7.45
2022-10-21T17:07:03.645Z,6.38
2022-10-21T17:09:05.320Z,6.90
2022-10-21T17:11:14.084Z,7.47
2022-10-21T17:13:15.614Z,7.57
2022-10-21T17:15:17.040Z,7.50
2022-10-21T17:17:21.015Z,7.32
2022-10-21T17:19:22.565Z,7.20
2022-10-21T17:21:28.909Z,7.18
2022-10-21T17:23:30.531Z,7.18
2022-10-21T17:25:32.468Z,8.05
2022-10-21T17:27:33.954Z,7.10
2022-10-21T17:29:35.414Z,7.70
2022-10-21T17:31:40.684Z,8.23
2022-10-21T17:33:42.625Z,8.35
2022-10-21T17:35:44.298Z,8.65
2022-10-21T17:37:48.902Z,9.70
2022-10-21T17:39:50.385Z,7.93
2022-10-21T17:41:52.310Z,7.63
2022-10-21T17:43:53.753Z,8.18
2022-10-21T17:45:56.824Z,8.32
2022-10-21T17:47:58.619Z,8.20
2022-10-21T17:50:00.137Z,8.70
2022-10-21T17:52:01.597Z,8.98
2022-10-21T17:54:03.043Z,9.30
2022-10-21T17:56:06.564Z,8.70
2022-10-21T17:58:08.007Z,8.07
2022-10-21T18:00:09.974Z,9.18
2022-10-21T18:02:11.451Z,9.20
2022-10-21T18:04:13.418Z,8.82
2022-10-21T18:06:15.840Z,9.05
2022-10-21T18:08:17.535Z,9.15
2022-10-21T18:10:18.992Z,9.48
2022-10-21T18:12:20.451Z,9.40
2022-10-21T18:14:22.000Z,8.93
2022-10-21T18:16:24.172Z,8.73
2022-10-21T18:18:25.824Z,8.05
2022-10-21T18:20:27.260Z,8.88
2022-10-21T18:22:28.714Z,8.88
2022-10-21T18:24:30.344Z,8.23
2022-10-21T18:26:32.335Z,8.15
2022-10-21T18:28:34.423Z,10.52
2022-10-21T18:30:42.518Z,10.18
2022-10-21T18:32:43.947Z,9.43
2022-10-21T18:34:45.459Z,8.57
2022-10-21T18:36:47.526Z,9.57
2022-10-21T18:38:49.001Z,8.18
2022-10-21T18:40:56.589Z,9.00
2022-10-21T18:43:03.614Z,8.85
2022-10-21T18:45:06.032Z,7.78
2022-10-21T18:47:07.443Z,8.60
2022-10-21T18:49:12.581Z,8.75
2022-10-21T18:51:18.846Z,7.47
2022-10-21T18:53:20.412Z,8.00
2022-10-21T18:55:21.941Z,8.15
2022-10-21T18:57:23.423Z,7.80
2022-10-21T18:59:24.894Z,7.78
2022-10-21T19:01:26.932Z,8.60
2022-10-21T19:03:28.555Z,9.35
2022-10-21T19:05:30.393Z,8.70
2022-10-21T19:07:31.982Z,7.93
2022-10-21T19:09:33.418Z,7.60
2022-10-21T19:11:35.056Z,8.05
2022-10-21T19:13:36.526Z,7.72
2022-10-21T19:15:38.128Z,7.63
2022-10-21T19:17:41.789Z,7.93
2022-10-21T19:19:43.609Z,7.93
2022-10-21T19:21:45.115Z,8.23
2022-10-21T19:23:46.726Z,7.75
2022-10-21T19:25:48.184Z,8.35
2022-10-21T19:27:49.845Z,10.15
2022-10-21T19:29:51.757Z,10.10
2022-10-21T19:31:55.744Z,8.32
2022-10-21T19:33:58.515Z,7.95
2022-10-21T19:36:01.868Z,8.25
2022-10-21T19:38:07.826Z,7.90
2022-10-21T19:40:12.953Z,8.77
2022-10-21T19:42:15.550Z,7.75
2022-10-21T19:44:17.186Z,7.22
2022-10-21T19:46:24.839Z,8.10
2022-10-21T19:50:28.742Z,7.40
2022-10-21T19:52:30.253Z,7.72
2022-10-21T19:54:31.669Z,7.22
2022-10-21T19:56:34.424Z,7.38
2022-10-21T19:58:39.365Z,7.40
2022-10-21T20:00:40.888Z,7.32
2022-10-21T20:02:42.707Z,7.88
2022-10-21T20:04:44.339Z,7.60
2022-10-21T20:06:45.904Z,7.38
2022-10-21T20:08:47.620Z,7.25
2022-10-21T20:11:03.908Z,7.82
2022-10-21T20:13:05.413Z,7.70
2022-10-21T20:15:07.304Z,7.43
2022-10-21T20:17:08.928Z,7.20
2022-10-21T20:19:12.317Z,9.02
2022-10-21T20:21:14.164Z,8.40
2022-10-21T20:23:15.855Z,8.27
2022-10-21T20:25:17.337Z,7.80
2022-10-21T20:27:18.786Z,7.38
2022-10-21T20:29:20.285Z,9.68
2022-10-21T20:31:21.755Z,8.05
2022-10-21T20:33:23.369Z,8.05
2022-10-21T20:35:24.920Z,8.43
2022-10-21T20:37:26.361Z,8.52
2022-10-21T20:39:27.895Z,8.57
2022-10-21T20:41:33.993Z,8.95
2022-10-21T20:43:37.223Z,9.48
2022-10-21T20:45:38.738Z,8.80
2022-10-21T20:47:40.420Z,9.15
2022-10-21T20:49:42.060Z,9.43
2022-10-21T20:51:43.487Z,8.82
2022-10-21T20:55:56.356Z,8.97
2022-10-21T20:57:57.831Z,10.93
2022-10-21T20:59:59.388Z,9.90
2022-10-21T21:02:00.874Z,8.60
2022-10-21T21:04:06.087Z,8.85
2022-10-21T21:06:07.602Z,12.95
2022-10-21T21:08:09.116Z,15.82
2022-10-21T21:10:10.750Z,9.27
2022-10-21T21:12:12.196Z,9.50
2022-10-21T21:14:14.065Z,8.48
2022-10-21T21:16:22.180Z,9.27
2022-10-21T21:18:23.689Z,8.73
2022-10-21T21:20:25.324Z,8.05
2022-10-21T21:22:26.737Z,8.20
2022-10-21T21:24:28.197Z,8.98
2022-10-21T21:26:31.933Z,8.38
2022-10-21T21:28:36.309Z,8.90
2022-10-21T21:30:37.947Z,9.27
2022-10-21T21:32:39.766Z,8.48
2022-10-21T21:34:41.595Z,9.48
2022-10-21T21:36:43.010Z,9.38
2022-10-21T21:38:44.978Z,9.77
2022-10-21T21:40:46.780Z,10.73
2022-10-21T21:42:48.506Z,10.60
2022-10-21T21:44:49.969Z,11.27
2022-10-21T21:46:51.639Z,9.95
2022-10-21T21:49:00.871Z,10.40
2022-10-21T21:51:06.927Z,8.60
2022-10-21T21:53:10.574Z,8.10
2022-10-21T21:55:12.037Z,7.93
2022-10-21T21:57:27.335Z,7.90
2022-10-21T21:59:30.957Z,7.68
2022-10-21T22:01:32.486Z,7.50
2022-10-21T22:03:33.983Z,7.35
2022-10-21T22:05:35.465Z,7.30
2022-10-21T22:07:36.965Z,7.70
2022-10-21T22:09:38.746Z,7.47
2022-10-21T22:11:40.248Z,8.48
2022-10-21T22:13:42.511Z,8.40
2022-10-21T22:15:48.021Z,9.02
2022-10-21T22:17:51.411Z,9.32
2022-10-21T22:19:53.930Z,7.82
2022-10-21T22:21:55.572Z,8.57
2022-10-21T22:23:57.598Z,7.32
2022-10-21T22:25:59.421Z,7.50
2022-10-21T22:28:00.877Z,7.85
2022-10-21T22:30:02.790Z,7.30
2022-10-21T22:32:04.587Z,6.82
2022-10-21T22:34:09.213Z,8.15
2022-10-21T22:36:13.399Z,7.95
2022-10-21T22:38:14.937Z,8.07
2022-10-21T22:40:16.356Z,7.97
2022-10-21T22:42:18.002Z,7.75
2022-10-21T22:44:22.051Z,7.32
2022-10-21T22:46:39.167Z,7.22
2022-10-21T22:48:40.647Z,7.63
2022-10-21T22:50:42.327Z,7.60
2022-10-21T22:52:43.815Z,7.55
2022-10-21T22:54:49.470Z,8.95
2022-10-21T22:56:51.540Z,13.35
2022-10-21T22:58:53.094Z,20.77
2022-10-21T23:02:56.956Z,14.63
2022-10-21T23:04:58.410Z,8.30
2022-10-21T23:06:59.849Z,8.40
2022-10-21T23:09:02.311Z,7.38
2022-10-21T23:11:03.982Z,7.65
2022-10-21T23:13:06.227Z,7.47
2022-10-21T23:15:08.182Z,6.53
2022-10-21T23:17:09.906Z,6.97
2022-10-21T23:21:18.148Z,6.60
2022-10-21T23:23:19.604Z,6.80
2022-10-21T23:25:22.902Z,5.95
2022-10-21T23:27:24.365Z,6.25
2022-10-21T23:29:25.842Z,5.60
2022-10-21T23:31:27.357Z,5.20
2022-10-21T23:33:28.789Z,4.80
2022-10-21T23:35:30.327Z,4.65
2022-10-21T23:37:31.786Z,4.95
2022-10-21T23:39:33.357Z,5.10
2022-10-21T23:41:34.803Z,4.13
2022-10-21T23:43:36.248Z,4.75
2022-10-21T23:45:38.400Z,4.38
2022-10-21T23:47:40.260Z,4.50
2022-10-21T23:49:42.944Z,4.63
2022-10-21T23:51:44.370Z,4.40
2022-10-21T23:53:45.852Z,3.90
2022-10-21T23:55:47.326Z,3.70
2022-10-21T23:57:48.918Z,3.90
2022-10-21T23:59:50.350Z,3.63
